sensor_id;sensor_type;location;lat;lon;timestamp;pressure;altitude;pressure_sealevel;temperature;humidity
61026;BME280;46911;32.650;-16.902;2023-02-21T00:00:38;101931.25;;;15.15;67.53
61026;BME280;46911;32.650;-16.902;2023-02-21T00:02:58;101934.59;;;15.18;67.34
61026;BME280;46911;32.650;-16.902;2023-02-21T00:05:17;101929.97;;;15.07;67.98
61026;BME280;46911;32.650;-16.902;2023-02-21T00:07:36;101945.03;;;15.10;67.28
61026;BME280;46911;32.650;-16.902;2023-02-21T00:09:58;101942.72;;;15.04;67.13
61026;BME280;46911;32.650;-16.902;2023-02-21T00:12:17;101923.13;;;14.89;67.70
61026;BME280;46911;32.650;-16.902;2023-02-21T00:14:37;101929.81;;;14.96;67.67
61026;BME280;46911;32.650;-16.902;2023-02-21T00:16:57;101930.25;;;14.90;67.27
61026;BME280;46911;32.650;-16.902;2023-02-21T00:19:16;101928.50;;;14.89;67.39
61026;BME280;46911;32.650;-16.902;2023-02-21T00:21:38;101928.72;;;14.86;67.79
61026;BME280;46911;32.650;-16.902;2023-02-21T00:23:57;101937.75;;;14.98;67.54
61026;BME280;46911;32.650;-16.902;2023-02-21T00:26:20;101944.75;;;15.00;67.58
61026;BME280;46911;32.650;-16.902;2023-02-21T00:28:40;101933.56;;;14.94;67.48
61026;BME280;46911;32.650;-16.902;2023-02-21T00:31:01;101939.81;;;14.94;67.80
61026;BME280;46911;32.650;-16.902;2023-02-21T00:33:25;101894.81;;;14.70;67.65
61026;BME280;46911;32.650;-16.902;2023-02-21T00:35:44;101909.97;;;14.71;67.56
61026;BME280;46911;32.650;-16.902;2023-02-21T00:38:04;101918.88;;;14.72;67.78
61026;BME280;46911;32.650;-16.902;2023-02-21T00:40:23;101940.44;;;14.85;68.12
61026;BME280;46911;32.650;-16.902;2023-02-21T00:42:42;101927.22;;;14.82;68.42
61026;BME280;46911;32.650;-16.902;2023-02-21T00:45:02;101934.63;;;14.91;68.66
61026;BME280;46911;32.650;-16.902;2023-02-21T00:47:22;101906.00;;;14.77;68.82
61026;BME280;46911;32.650;-16.902;2023-02-21T00:49:41;101913.00;;;14.80;68.94
61026;BME280;46911;32.650;-16.902;2023-02-21T00:52:03;101927.66;;;14.88;68.95
61026;BME280;46911;32.650;-16.902;2023-02-21T00:54:25;101923.44;;;14.84;69.14
61026;BME280;46911;32.650;-16.902;2023-02-21T00:56:44;101932.25;;;14.86;68.84
61026;BME280;46911;32.650;-16.902;2023-02-21T00:59:04;101915.03;;;14.76;69.00
61026;BME280;46911;32.650;-16.902;2023-02-21T01:01:23;101927.09;;;14.83;69.26
61026;BME280;46911;32.650;-16.902;2023-02-21T01:03:43;101895.03;;;14.67;68.85
61026;BME280;46911;32.650;-16.902;2023-02-21T01:06:09;101920.66;;;14.86;69.12
61026;BME280;46911;32.650;-16.902;2023-02-21T01:08:28;101938.63;;;14.98;68.64
61026;BME280;46911;32.650;-16.902;2023-02-21T01:10:50;101920.22;;;14.92;68.57
61026;BME280;46911;32.650;-16.902;2023-02-21T01:13:12;101946.09;;;15.07;68.00
61026;BME280;46911;32.650;-16.902;2023-02-21T01:15:33;101928.44;;;15.03;67.84
61026;BME280;46911;32.650;-16.902;2023-02-21T01:17:53;101930.38;;;15.01;67.90
61026;BME280;46911;32.650;-16.902;2023-02-21T01:20:12;101941.34;;;15.11;67.84
61026;BME280;46911;32.650;-16.902;2023-02-21T01:22:32;101953.19;;;15.09;67.76
61026;BME280;46911;32.650;-16.902;2023-02-21T01:24:54;101917.25;;;14.97;67.69
61026;BME280;46911;32.650;-16.902;2023-02-21T01:27:15;101890.66;;;14.79;67.79
61026;BME280;46911;32.650;-16.902;2023-02-21T01:29:35;101944.91;;;15.12;67.83
61026;BME280;46911;32.650;-16.902;2023-02-21T01:31:54;101924.88;;;15.03;67.97
61026;BME280;46911;32.650;-16.902;2023-02-21T01:34:14;101922.19;;;15.03;67.87
61026;BME280;46911;32.650;-16.902;2023-02-21T01:36:33;101940.28;;;15.14;67.72
61026;BME280;46911;32.650;-16.902;2023-02-21T01:38:54;101924.03;;;15.02;67.74
61026;BME280;46911;32.650;-16.902;2023-02-21T01:41:14;101916.94;;;15.01;67.89
61026;BME280;46911;32.650;-16.902;2023-02-21T01:43:33;101926.72;;;15.02;68.03
61026;BME280;46911;32.650;-16.902;2023-02-21T01:45:54;101942.34;;;15.10;68.10
61026;BME280;46911;32.650;-16.902;2023-02-21T01:48:19;101940.25;;;15.01;68.69
61026;BME280;46911;32.650;-16.902;2023-02-21T01:50:39;101949.38;;;14.98;69.45
61026;BME280;46911;32.650;-16.902;2023-02-21T01:53:01;101938.41;;;14.88;70.07
61026;BME280;46911;32.650;-16.902;2023-02-21T01:55:23;101945.81;;;14.85;70.36
61026;BME280;46911;32.650;-16.902;2023-02-21T01:57:43;101924.69;;;14.66;70.81
61026;BME280;46911;32.650;-16.902;2023-02-21T02:00:07;101947.16;;;14.78;71.16
61026;BME280;46911;32.650;-16.902;2023-02-21T02:02:45;101924.38;;;14.56;71.45
61026;BME280;46911;32.650;-16.902;2023-02-21T02:05:08;101933.38;;;14.55;71.57
61026;BME280;46911;32.650;-16.902;2023-02-21T02:07:29;101920.59;;;14.46;70.99
61026;BME280;46911;32.650;-16.902;2023-02-21T02:09:49;101942.22;;;14.57;71.11
61026;BME280;46911;32.650;-16.902;2023-02-21T02:21:15;101953.44;;;14.49;71.67
61026;BME280;46911;32.650;-16.902;2023-02-21T02:39:30;101952.63;;;14.20;71.46
61026;BME280;46911;32.650;-16.902;2023-02-21T02:42:27;101951.78;;;14.19;71.57
61026;BME280;46911;32.650;-16.902;2023-02-21T02:44:16;101930.22;;;14.06;71.66
61026;BME280;46911;32.650;-16.902;2023-02-21T02:46:23;101947.69;;;14.14;71.40
61026;BME280;46911;32.650;-16.902;2023-02-21T02:48:34;101922.59;;;14.00;71.02
61026;BME280;46911;32.650;-16.902;2023-02-21T02:50:39;101920.75;;;14.01;70.61
61026;BME280;46911;32.650;-16.902;2023-02-21T02:52:55;101936.38;;;14.09;70.18
61026;BME280;46911;32.650;-16.902;2023-02-21T02:57:20;101937.22;;;14.09;68.85
61026;BME280;46911;32.650;-16.902;2023-02-21T02:59:26;101918.91;;;14.01;68.87
61026;BME280;46911;32.650;-16.902;2023-02-21T03:11:13;101921.00;;;14.11;69.41
61026;BME280;46911;32.650;-16.902;2023-02-21T03:20:27;101901.28;;;13.97;68.57
61026;BME280;46911;32.650;-16.902;2023-02-21T03:22:29;101914.13;;;14.06;68.29
61026;BME280;46911;32.650;-16.902;2023-02-21T03:24:35;101914.22;;;14.05;67.92
61026;BME280;46911;32.650;-16.902;2023-02-21T03:26:44;101905.59;;;14.00;67.71
61026;BME280;46911;32.650;-16.902;2023-02-21T03:29:16;101892.50;;;13.95;67.28
61026;BME280;46911;32.650;-16.902;2023-02-21T03:31:25;101899.50;;;13.98;67.26
61026;BME280;46911;32.650;-16.902;2023-02-21T03:33:29;101901.13;;;14.00;66.63
61026;BME280;46911;32.650;-16.902;2023-02-21T03:35:30;101914.69;;;14.12;66.51
61026;BME280;46911;32.650;-16.902;2023-02-21T03:37:44;101898.81;;;14.09;65.83
61026;BME280;46911;32.650;-16.902;2023-02-21T03:39:46;101891.81;;;14.06;66.29
61026;BME280;46911;32.650;-16.902;2023-02-21T03:41:50;101900.72;;;14.06;65.91
61026;BME280;46911;32.650;-16.902;2023-02-21T03:43:54;101889.13;;;14.06;66.21
61026;BME280;46911;32.650;-16.902;2023-02-21T03:45:55;101887.41;;;14.05;66.17
61026;BME280;46911;32.650;-16.902;2023-02-21T03:48:01;101913.53;;;14.16;66.39
61026;BME280;46911;32.650;-16.902;2023-02-21T03:50:07;101912.59;;;14.17;66.74
61026;BME280;46911;32.650;-16.902;2023-02-21T03:52:13;101892.38;;;14.11;66.64
61026;BME280;46911;32.650;-16.902;2023-02-21T03:54:19;101899.56;;;14.11;66.71
61026;BME280;46911;32.650;-16.902;2023-02-21T03:56:26;101919.28;;;14.24;66.70
61026;BME280;46911;32.650;-16.902;2023-02-21T03:58:38;101912.19;;;14.23;66.49
61026;BME280;46911;32.650;-16.902;2023-02-21T04:00:39;101893.03;;;14.15;66.56
61026;BME280;46911;32.650;-16.902;2023-02-21T04:02:40;101904.44;;;14.18;66.75
61026;BME280;46911;32.650;-16.902;2023-02-21T04:04:52;101915.25;;;14.31;66.60
61026;BME280;46911;32.650;-16.902;2023-02-21T04:06:58;101923.09;;;14.34;66.67
61026;BME280;46911;32.650;-16.902;2023-02-21T04:08:59;101898.69;;;14.25;66.64
61026;BME280;46911;32.650;-16.902;2023-02-21T04:11:06;101907.31;;;14.30;66.47
61026;BME280;46911;32.650;-16.902;2023-02-21T04:13:10;101921.72;;;14.42;66.51
61026;BME280;46911;32.650;-16.902;2023-02-21T04:15:19;101900.09;;;14.30;66.72
61026;BME280;46911;32.650;-16.902;2023-02-21T04:17:20;101905.25;;;14.33;66.48
61026;BME280;46911;32.650;-16.902;2023-02-21T04:19:24;101897.97;;;14.35;66.43
61026;BME280;46911;32.650;-16.902;2023-02-21T04:21:25;101915.22;;;14.46;66.66
61026;BME280;46911;32.650;-16.902;2023-02-21T04:23:30;101907.34;;;14.43;66.46
61026;BME280;46911;32.650;-16.902;2023-02-21T04:25:31;101880.47;;;14.30;66.48
61026;BME280;46911;32.650;-16.902;2023-02-21T04:27:37;101893.91;;;14.43;66.40
61026;BME280;46911;32.650;-16.902;2023-02-21T04:29:41;101912.56;;;14.59;66.54
61026;BME280;46911;32.650;-16.902;2023-02-21T04:31:44;101904.84;;;14.54;66.58
61026;BME280;46911;32.650;-16.902;2023-02-21T04:33:49;101900.22;;;14.56;66.20
61026;BME280;46911;32.650;-16.902;2023-02-21T04:35:56;101910.09;;;14.55;66.62
61026;BME280;46911;32.650;-16.902;2023-02-21T04:38:07;101899.13;;;14.46;66.47
61026;BME280;46911;32.650;-16.902;2023-02-21T04:40:10;101914.69;;;14.53;66.63
61026;BME280;46911;32.650;-16.902;2023-02-21T04:42:16;101895.09;;;14.38;66.66
61026;BME280;46911;32.650;-16.902;2023-02-21T04:44:20;101917.69;;;14.49;66.38
61026;BME280;46911;32.650;-16.902;2023-02-21T04:46:21;101895.47;;;14.32;66.47
61026;BME280;46911;32.650;-16.902;2023-02-21T04:48:24;101902.47;;;14.35;66.17
61026;BME280;46911;32.650;-16.902;2023-02-21T04:50:25;101922.28;;;14.47;66.54
61026;BME280;46911;32.650;-16.902;2023-02-21T04:52:28;101915.22;;;14.46;66.75
61026;BME280;46911;32.650;-16.902;2023-02-21T04:54:29;101913.84;;;14.53;66.90
61026;BME280;46911;32.650;-16.902;2023-02-21T04:56:32;101910.19;;;14.54;66.72
61026;BME280;46911;32.650;-16.902;2023-02-21T04:58:38;101918.16;;;14.55;66.60
61026;BME280;46911;32.650;-16.902;2023-02-21T05:00:39;101893.44;;;14.50;66.49
61026;BME280;46911;32.650;-16.902;2023-02-21T05:02:43;101917.69;;;14.63;66.38
61026;BME280;46911;32.650;-16.902;2023-02-21T05:04:44;101886.44;;;14.48;66.49
61026;BME280;46911;32.650;-16.902;2023-02-21T05:06:45;101905.69;;;14.54;66.45
61026;BME280;46911;32.650;-16.902;2023-02-21T05:08:51;101903.66;;;14.58;66.39
61026;BME280;46911;32.650;-16.902;2023-02-21T05:10:52;101917.25;;;14.69;66.29
61026;BME280;46911;32.650;-16.902;2023-02-21T05:12:54;101920.16;;;14.66;66.37
61026;BME280;46911;32.650;-16.902;2023-02-21T05:14:55;101921.28;;;14.62;66.16
61026;BME280;46911;32.650;-16.902;2023-02-21T05:17:01;101912.47;;;14.60;66.42
61026;BME280;46911;32.650;-16.902;2023-02-21T05:19:02;101915.75;;;14.51;66.42
61026;BME280;46911;32.650;-16.902;2023-02-21T05:21:07;101912.09;;;14.52;66.82
61026;BME280;46911;32.650;-16.902;2023-02-21T05:23:13;101897.03;;;14.36;66.84
61026;BME280;46911;32.650;-16.902;2023-02-21T05:25:22;101903.25;;;14.37;66.91
61026;BME280;46911;32.650;-16.902;2023-02-21T05:27:23;101887.41;;;14.32;67.12
61026;BME280;46911;32.650;-16.902;2023-02-21T05:29:24;101898.16;;;14.32;66.89
61026;BME280;46911;32.650;-16.902;2023-02-21T05:31:30;101886.47;;;14.33;66.89
61026;BME280;46911;32.650;-16.902;2023-02-21T05:33:31;101916.66;;;14.37;67.09
61026;BME280;46911;32.650;-16.902;2023-02-21T05:35:37;101904.63;;;14.30;67.40
61026;BME280;46911;32.650;-16.902;2023-02-21T05:37:37;101917.38;;;14.26;67.41
61026;BME280;46911;32.650;-16.902;2023-02-21T05:39:41;101897.75;;;14.11;67.95
61026;BME280;46911;32.650;-16.902;2023-02-21T05:41:47;101916.31;;;14.14;68.11
61026;BME280;46911;32.650;-16.902;2023-02-21T05:43:48;101920.91;;;14.12;68.22
61026;BME280;46911;32.650;-16.902;2023-02-21T05:45:51;101899.09;;;13.89;68.41
61026;BME280;46911;32.650;-16.902;2023-02-21T05:48:00;101903.22;;;13.81;68.27
61026;BME280;46911;32.650;-16.902;2023-02-21T05:50:03;101901.59;;;13.78;68.84
61026;BME280;46911;32.650;-16.902;2023-02-21T05:52:13;101919.69;;;13.89;68.76
61026;BME280;46911;32.650;-16.902;2023-02-21T05:54:18;101924.97;;;13.90;68.91
61026;BME280;46911;32.650;-16.902;2023-02-21T05:56:20;101924.78;;;13.94;68.89
61026;BME280;46911;32.650;-16.902;2023-02-21T05:58:24;101919.97;;;13.99;68.80
61026;BME280;46911;32.650;-16.902;2023-02-21T06:00:31;101900.91;;;13.89;68.53
61026;BME280;46911;32.650;-16.902;2023-02-21T06:02:36;101926.97;;;14.01;68.70
61026;BME280;46911;32.650;-16.902;2023-02-21T06:04:40;101901.97;;;13.86;68.92
61026;BME280;46911;32.650;-16.902;2023-02-21T06:06:41;101906.28;;;13.89;68.24
61026;BME280;46911;32.650;-16.902;2023-02-21T06:08:48;101902.94;;;13.85;68.06
61026;BME280;46911;32.650;-16.902;2023-02-21T06:10:51;101910.69;;;13.90;68.20
61026;BME280;46911;32.650;-16.902;2023-02-21T06:12:52;101927.53;;;14.06;68.05
61026;BME280;46911;32.650;-16.902;2023-02-21T06:14:58;101912.22;;;13.94;67.13
61026;BME280;46911;32.650;-16.902;2023-02-21T06:17:01;101933.56;;;14.25;66.57
61026;BME280;46911;32.650;-16.902;2023-02-21T06:19:04;101927.22;;;14.26;66.32
61026;BME280;46911;32.650;-16.902;2023-02-21T06:21:08;101885.66;;;14.04;65.96
61026;BME280;46911;32.650;-16.902;2023-02-21T06:23:09;101928.47;;;14.34;65.67
61026;BME280;46911;32.650;-16.902;2023-02-21T06:25:10;101937.34;;;14.49;65.30
61026;BME280;46911;32.650;-16.902;2023-02-21T06:27:13;101887.47;;;14.18;65.38
61026;BME280;46911;32.650;-16.902;2023-02-21T06:29:15;101923.31;;;14.31;65.60
61026;BME280;46911;32.650;-16.902;2023-02-21T06:31:17;101943.97;;;14.44;65.25
61026;BME280;46911;32.650;-16.902;2023-02-21T06:33:18;101918.22;;;14.27;64.78
61026;BME280;46911;32.650;-16.902;2023-02-21T06:35:19;101946.09;;;14.38;64.89
61026;BME280;46911;32.650;-16.902;2023-02-21T06:37:23;101929.06;;;14.25;64.86
61026;BME280;46911;32.650;-16.902;2023-02-21T06:39:23;101943.78;;;14.32;64.76
61026;BME280;46911;32.650;-16.902;2023-02-21T06:41:28;101925.78;;;14.20;64.10
61026;BME280;46911;32.650;-16.902;2023-02-21T06:43:29;101936.63;;;14.18;64.26
61026;BME280;46911;32.650;-16.902;2023-02-21T06:45:34;101947.63;;;14.28;63.34
61026;BME280;46911;32.650;-16.902;2023-02-21T06:47:38;101937.47;;;14.19;63.11
61026;BME280;46911;32.650;-16.902;2023-02-21T06:49:42;101911.84;;;14.00;62.83
61026;BME280;46911;32.650;-16.902;2023-02-21T06:51:43;101923.53;;;14.14;62.32
61026;BME280;46911;32.650;-16.902;2023-02-21T06:53:49;101929.06;;;14.11;62.41
61026;BME280;46911;32.650;-16.902;2023-02-21T06:55:53;101946.22;;;14.22;62.19
61026;BME280;46911;32.650;-16.902;2023-02-21T06:57:54;101940.47;;;14.14;62.13
61026;BME280;46911;32.650;-16.902;2023-02-21T06:59:55;101914.91;;;13.94;62.33
61026;BME280;46911;32.650;-16.902;2023-02-21T07:01:56;101944.78;;;14.02;62.81
61026;BME280;46911;32.650;-16.902;2023-02-21T07:03:59;101928.53;;;13.91;63.18
61026;BME280;46911;32.650;-16.902;2023-02-21T07:06:03;101949.97;;;13.91;63.12
61026;BME280;46911;32.650;-16.902;2023-02-21T07:08:06;101927.75;;;13.75;63.35
61026;BME280;46911;32.650;-16.902;2023-02-21T07:10:10;101911.00;;;13.71;63.21
61026;BME280;46911;32.650;-16.902;2023-02-21T07:12:11;101914.16;;;13.63;63.51
61026;BME280;46911;32.650;-16.902;2023-02-21T07:14:12;101952.44;;;13.80;63.36
61026;BME280;46911;32.650;-16.902;2023-02-21T07:16:13;101947.28;;;13.77;63.13
61026;BME280;46911;32.650;-16.902;2023-02-21T07:18:20;101930.03;;;13.66;62.81
61026;BME280;46911;32.650;-16.902;2023-02-21T07:20:21;101933.19;;;13.59;63.10
61026;BME280;46911;32.650;-16.902;2023-02-21T07:22:24;101946.31;;;13.63;63.30
61026;BME280;46911;32.650;-16.902;2023-02-21T07:24:25;101941.31;;;13.57;63.57
61026;BME280;46911;32.650;-16.902;2023-02-21T07:26:28;101929.53;;;13.45;63.25
61026;BME280;46911;32.650;-16.902;2023-02-21T07:28:31;101929.53;;;13.45;63.39
61026;BME280;46911;32.650;-16.902;2023-02-21T07:30:35;101935.78;;;13.46;63.50
61026;BME280;46911;32.650;-16.902;2023-02-21T07:32:40;101953.78;;;13.58;63.79
61026;BME280;46911;32.650;-16.902;2023-02-21T07:34:41;101957.41;;;13.57;63.77
61026;BME280;46911;32.650;-16.902;2023-02-21T07:36:47;101953.09;;;13.54;64.01
61026;BME280;46911;32.650;-16.902;2023-02-21T07:38:48;101933.66;;;13.36;64.26
61026;BME280;46911;32.650;-16.902;2023-02-21T07:40:56;101963.22;;;13.49;64.61
61026;BME280;46911;32.650;-16.902;2023-02-21T07:43:00;101938.06;;;13.37;64.90
61026;BME280;46911;32.650;-16.902;2023-02-21T07:45:02;101940.88;;;13.34;65.04
61026;BME280;46911;32.650;-16.902;2023-02-21T07:47:03;101963.31;;;13.48;64.99
61026;BME280;46911;32.650;-16.902;2023-02-21T07:49:06;101958.16;;;13.45;65.06
61026;BME280;46911;32.650;-16.902;2023-02-21T07:51:11;101937.25;;;13.35;65.03
61026;BME280;46911;32.650;-16.902;2023-02-21T07:53:19;101941.69;;;13.36;65.24
61026;BME280;46911;32.650;-16.902;2023-02-21T07:55:22;101937.25;;;13.35;65.23
61026;BME280;46911;32.650;-16.902;2023-02-21T07:57:23;101958.75;;;13.50;65.75
61026;BME280;46911;32.650;-16.902;2023-02-21T07:59:24;101941.22;;;13.44;65.26
61026;BME280;46911;32.650;-16.902;2023-02-21T08:01:30;101954.13;;;13.52;65.65
61026;BME280;46911;32.650;-16.902;2023-02-21T08:03:31;101967.78;;;13.63;65.53
61026;BME280;46911;32.650;-16.902;2023-02-21T08:05:32;101914.25;;;13.31;65.20
61026;BME280;46911;32.650;-16.902;2023-02-21T08:07:35;101960.69;;;13.62;65.48
61026;BME280;46911;32.650;-16.902;2023-02-21T08:09:41;101951.84;;;13.60;64.92
61026;BME280;46911;32.650;-16.902;2023-02-21T08:11:44;101955.00;;;13.67;65.16
61026;BME280;46911;32.650;-16.902;2023-02-21T08:13:48;101978.03;;;13.85;65.16
61026;BME280;46911;32.650;-16.902;2023-02-21T08:15:49;101978.50;;;13.92;65.38
61026;BME280;46911;32.650;-16.902;2023-02-21T08:17:50;101956.00;;;13.95;66.48
61026;BME280;46911;32.650;-16.902;2023-02-21T08:19:53;101968.16;;;14.15;66.96
61026;BME280;46911;32.650;-16.902;2023-02-21T08:21:56;101975.72;;;14.37;66.60
61026;BME280;46911;32.650;-16.902;2023-02-21T08:23:59;101986.72;;;14.47;65.56
61026;BME280;46911;32.650;-16.902;2023-02-21T08:26:04;101976.56;;;14.52;65.78
61026;BME280;46911;32.650;-16.902;2023-02-21T08:28:07;101966.22;;;14.46;65.86
61026;BME280;46911;32.650;-16.902;2023-02-21T08:30:10;101977.69;;;14.62;65.60
61026;BME280;46911;32.650;-16.902;2023-02-21T08:32:12;101958.53;;;14.54;65.43
61026;BME280;46911;32.650;-16.902;2023-02-21T08:34:13;101978.75;;;14.74;65.20
61026;BME280;46911;32.650;-16.902;2023-02-21T08:36:16;101987.72;;;14.87;64.07
61026;BME280;46911;32.650;-16.902;2023-02-21T08:38:18;101989.78;;;14.97;63.68
61026;BME280;46911;32.650;-16.902;2023-02-21T08:40:19;101993.03;;;15.02;63.56
61026;BME280;46911;32.650;-16.902;2023-02-21T08:42:25;101970.00;;;14.98;63.15
61026;BME280;46911;32.650;-16.902;2023-02-21T08:44:31;101989.63;;;15.13;62.70
61026;BME280;46911;32.650;-16.902;2023-02-21T08:46:35;101981.16;;;15.19;62.81
61026;BME280;46911;32.650;-16.902;2023-02-21T08:48:36;101968.47;;;15.21;62.55
61026;BME280;46911;32.650;-16.902;2023-02-21T08:50:37;101987.13;;;15.37;62.26
61026;BME280;46911;32.650;-16.902;2023-02-21T08:52:37;102000.16;;;15.56;62.05
61026;BME280;46911;32.650;-16.902;2023-02-21T08:54:42;102001.88;;;15.70;61.89
61026;BME280;46911;32.650;-16.902;2023-02-21T08:56:43;101995.53;;;15.71;62.00
61026;BME280;46911;32.650;-16.902;2023-02-21T08:58:44;101990.31;;;15.82;61.83
61026;BME280;46911;32.650;-16.902;2023-02-21T09:00:48;101996.03;;;16.03;61.48
61026;BME280;46911;32.650;-16.902;2023-02-21T09:02:50;101995.69;;;16.21;61.16
61026;BME280;46911;32.650;-16.902;2023-02-21T09:04:51;102011.66;;;16.48;60.94
61026;BME280;46911;32.650;-16.902;2023-02-21T09:06:55;102014.88;;;16.66;60.35
61026;BME280;46911;32.650;-16.902;2023-02-21T09:08:59;102010.06;;;16.83;59.97
61026;BME280;46911;32.650;-16.902;2023-02-21T09:11:00;102022.19;;;17.01;60.03
61026;BME280;46911;32.650;-16.902;2023-02-21T09:13:02;101999.75;;;17.01;59.87
61026;BME280;46911;32.650;-16.902;2023-02-21T09:15:03;102003.84;;;17.06;59.92
61026;BME280;46911;32.650;-16.902;2023-02-21T09:17:08;102019.25;;;17.29;60.00
61026;BME280;46911;32.650;-16.902;2023-02-21T09:19:09;102003.19;;;17.27;60.24
61026;BME280;46911;32.650;-16.902;2023-02-21T09:21:13;102002.25;;;17.39;60.00
61026;BME280;46911;32.650;-16.902;2023-02-21T09:23:17;102004.75;;;17.54;59.71
61026;BME280;46911;32.650;-16.902;2023-02-21T09:25:22;102022.00;;;17.87;59.30
61026;BME280;46911;32.650;-16.902;2023-02-21T09:27:28;102024.53;;;18.01;59.16
61026;BME280;46911;32.650;-16.902;2023-02-21T09:29:38;102029.44;;;18.19;59.00
61026;BME280;46911;32.650;-16.902;2023-02-21T09:31:41;102018.13;;;18.25;58.77
61026;BME280;46911;32.650;-16.902;2023-02-21T09:33:43;101993.59;;;18.28;58.59
61026;BME280;46911;32.650;-16.902;2023-02-21T09:35:49;102017.00;;;18.62;58.39
61026;BME280;46911;32.650;-16.902;2023-02-21T09:37:50;102017.31;;;18.80;57.95
61026;BME280;46911;32.650;-16.902;2023-02-21T09:39:54;102029.19;;;19.11;57.40
61026;BME280;46911;32.650;-16.902;2023-02-21T09:41:57;102029.97;;;19.34;56.91
61026;BME280;46911;32.650;-16.902;2023-02-21T09:44:00;102026.94;;;19.49;56.50
61026;BME280;46911;32.650;-16.902;2023-02-21T09:46:35;102051.38;;;19.80;56.30
61026;BME280;46911;32.650;-16.902;2023-02-21T09:48:40;102038.53;;;19.93;56.33
61026;BME280;46911;32.650;-16.902;2023-02-21T09:50:50;102032.72;;;19.77;56.33
61026;BME280;46911;32.650;-16.902;2023-02-21T09:52:56;102050.66;;;19.99;56.62
61026;BME280;46911;32.650;-16.902;2023-02-21T09:55:26;102038.53;;;19.93;55.84
61026;BME280;46911;32.650;-16.902;2023-02-21T09:57:25;102053.94;;;19.93;56.00
61026;BME280;46911;32.650;-16.902;2023-02-21T09:59:29;102041.50;;;20.52;55.23
61026;BME280;46911;32.650;-16.902;2023-02-21T10:02:17;102038.84;;;21.51;53.38
61026;BME280;46911;32.650;-16.902;2023-02-21T10:07:01;102025.53;;;22.81;48.76
61026;BME280;46911;32.650;-16.902;2023-02-21T10:14:22;102032.63;;;24.43;45.16
61026;BME280;46911;32.650;-16.902;2023-02-21T10:18:58;102052.94;;;23.69;45.21
61026;BME280;46911;32.650;-16.902;2023-02-21T10:21:03;102037.34;;;23.80;44.60
61026;BME280;46911;32.650;-16.902;2023-02-21T10:23:17;102049.09;;;24.33;44.93
61026;BME280;46911;32.650;-16.902;2023-02-21T10:25:25;102052.47;;;23.74;44.94
61026;BME280;46911;32.650;-16.902;2023-02-21T10:27:32;102056.94;;;23.39;45.41
61026;BME280;46911;32.650;-16.902;2023-02-21T10:29:59;102059.97;;;22.72;47.25
61026;BME280;46911;32.650;-16.902;2023-02-21T10:32:04;102043.19;;;23.22;47.28
61026;BME280;46911;32.650;-16.902;2023-02-21T10:34:19;102045.22;;;23.83;46.15
61026;BME280;46911;32.650;-16.902;2023-02-21T10:36:22;102047.00;;;23.92;46.05
61026;BME280;46911;32.650;-16.902;2023-02-21T10:38:25;102052.81;;;23.17;47.18
61026;BME280;46911;32.650;-16.902;2023-02-21T10:40:34;102037.81;;;22.29;49.82
61026;BME280;46911;32.650;-16.902;2023-02-21T10:44:39;102032.59;;;23.19;47.69
61026;BME280;46911;32.650;-16.902;2023-02-21T10:46:51;102052.50;;;24.00;46.15
61026;BME280;46911;32.650;-16.902;2023-02-21T10:51:30;102038.44;;;23.87;45.48
61026;BME280;46911;32.650;-16.902;2023-02-21T10:53:40;102058.97;;;23.19;47.06
61026;BME280;46911;32.650;-16.902;2023-02-21T10:58:16;102053.94;;;23.68;45.92
61026;BME280;46911;32.650;-16.902;2023-02-21T11:00:39;102058.97;;;23.99;45.75
61026;BME280;46911;32.650;-16.902;2023-02-21T11:02:50;102063.13;;;23.85;44.24
61026;BME280;46911;32.650;-16.902;2023-02-21T11:05:05;102061.84;;;23.98;44.62
61026;BME280;46911;32.650;-16.902;2023-02-21T11:07:09;102072.50;;;24.44;44.29
61026;BME280;46911;32.650;-16.902;2023-02-21T11:09:41;102067.22;;;24.42;43.60
61026;BME280;46911;32.650;-16.902;2023-02-21T11:14:22;102071.53;;;23.92;44.65
61026;BME280;46911;32.650;-16.902;2023-02-21T11:16:26;102072.19;;;23.68;45.11
61026;BME280;46911;32.650;-16.902;2023-02-21T11:18:32;102080.06;;;23.35;46.21
61026;BME280;46911;32.650;-16.902;2023-02-21T11:20:32;102081.34;;;22.85;47.33
61026;BME280;46911;32.650;-16.902;2023-02-21T11:25:11;102090.38;;;22.10;48.43
61026;BME280;46911;32.650;-16.902;2023-02-21T11:27:17;102078.63;;;22.10;48.51
61026;BME280;46911;32.650;-16.902;2023-02-21T11:29:20;102085.50;;;23.07;47.27
61026;BME280;46911;32.650;-16.902;2023-02-21T11:31:26;102084.63;;;23.70;44.51
61026;BME280;46911;32.650;-16.902;2023-02-21T11:33:33;102079.06;;;25.02;42.09
61026;BME280;46911;32.650;-16.902;2023-02-21T11:35:43;102061.78;;;24.16;42.97
61026;BME280;46911;32.650;-16.902;2023-02-21T11:37:54;102063.78;;;25.42;40.38
61026;BME280;46911;32.650;-16.902;2023-02-21T11:39:58;102084.47;;;25.78;39.80
61026;BME280;46911;32.650;-16.902;2023-02-21T11:42:02;102074.94;;;27.17;37.26
61026;BME280;46911;32.650;-16.902;2023-02-21T11:46:45;102076.50;;;28.64;34.78
61026;BME280;46911;32.650;-16.902;2023-02-21T11:49:47;102071.41;;;27.78;35.17
61026;BME280;46911;32.650;-16.902;2023-02-21T11:51:46;102075.94;;;26.93;36.79
61026;BME280;46911;32.650;-16.902;2023-02-21T11:53:48;102078.47;;;28.11;34.83
61026;BME280;46911;32.650;-16.902;2023-02-21T11:56:06;102082.25;;;28.10;34.46
61026;BME280;46911;32.650;-16.902;2023-02-21T11:58:54;102079.88;;;28.51;33.68
61026;BME280;46911;32.650;-16.902;2023-02-21T12:01:08;102062.59;;;27.68;35.32
61026;BME280;46911;32.650;-16.902;2023-02-21T12:06:05;102072.56;;;29.47;31.84